TimeCST,TemperatureF,Dew PointF,Humidity,Sea Level PressureIn,VisibilityMPH,Wind Direction,Wind SpeedMPH,Gust SpeedMPH,PrecipitationIn,Events,Conditions,WindDirDegrees,DateUTC
12:56 AM,52.0,39.0,61,29.71,10.0,SSW,13.8,-,N/A,,Clear,200,2012-11-22 06:56:00
1:56 AM,51.1,39.0,63,29.69,10.0,SSW,15.0,-,N/A,,Clear,200,2012-11-22 07:56:00
2:56 AM,50.0,37.9,63,29.70,10.0,South,6.9,-,N/A,,Clear,180,2012-11-22 08:56:00
3:56 AM,46.0,37.0,71,29.69,10.0,SSW,5.8,-,N/A,,Clear,210,2012-11-22 09:56:00
4:56 AM,43.0,35.1,74,29.71,10.0,SW,8.1,-,N/A,,Clear,230,2012-11-22 10:56:00
5:56 AM,41.0,30.9,67,29.71,10.0,West,8.1,-,N/A,,Clear,270,2012-11-22 11:56:00
6:56 AM,46.0,28.0,50,29.74,10.0,West,15.0,-,N/A,,Clear,270,2012-11-22 12:56:00
7:56 AM,43.0,28.9,58,29.78,10.0,West,10.4,-,N/A,,Clear,280,2012-11-22 13:56:00
8:56 AM,52.0,34.0,50,29.81,10.0,WNW,13.8,-,N/A,,Clear,300,2012-11-22 14:56:00
9:56 AM,54.0,36.0,51,29.83,10.0,NW,24.2,32.2,N/A,,Clear,320,2012-11-22 15:56:00
10:56 AM,55.9,37.0,49,29.89,10.0,NW,27.6,36.8,N/A,,Clear,320,2012-11-22 16:56:00
11:56 AM,54.0,37.0,53,29.92,10.0,NW,28.8,36.8,N/A,,Clear,320,2012-11-22 17:56:00
12:56 PM,54.0,37.0,53,29.94,10.0,NW,28.8,36.8,N/A,,Mostly Cloudy,320,2012-11-22 18:56:00
1:56 PM,53.1,37.0,55,29.99,10.0,NNW,26.5,35.7,N/A,,Mostly Cloudy,330,2012-11-22 19:56:00
2:56 PM,52.0,34.0,50,30.02,10.0,NW,27.6,38.0,N/A,,Scattered Clouds,320,2012-11-22 20:56:00
3:56 PM,52.0,32.0,47,30.07,10.0,NW,24.2,32.2,N/A,,Partly Cloudy,320,2012-11-22 21:56:00
4:56 PM,48.9,27.0,43,30.11,10.0,NW,16.1,26.5,N/A,,Clear,320,2012-11-22 22:56:00
5:56 PM,46.9,25.0,42,30.15,10.0,NW,11.5,-,N/A,,Clear,310,2012-11-22 23:56:00
6:56 PM,44.1,28.0,53,30.19,10.0,NNW,15.0,-,N/A,,Scattered Clouds,330,2012-11-23 00:56:00
7:56 PM,42.1,30.0,62,30.22,10.0,NW,15.0,20.7,N/A,,Clear,320,2012-11-23 01:56:00
8:56 PM,39.0,30.0,70,30.23,10.0,WNW,9.2,-,N/A,,Clear,290,2012-11-23 02:56:00
9:56 PM,39.0,28.9,67,30.27,10.0,NW,13.8,-,N/A,,Scattered Clouds,310,2012-11-23 03:56:00
10:56 PM,37.9,21.9,53,30.26,9.0,WNW,32.2,41.4,0.00,,Clear,300,2012-11-23 04:56:00
11:56 PM,30.0,16.0,56,30.32,10.0,NW,26.5,41.4,N/A,,Clear,310,2012-11-23 05:56:00